createdAt,value
2022-12-20T00:01:29.880Z,67.41
2022-12-20T00:04:02.509Z,67.40
2022-12-20T00:06:32.228Z,67.63
2022-12-20T00:09:02.855Z,67.36
2022-12-20T00:11:31.485Z,67.09
2022-12-20T00:13:59.733Z,67.16
2022-12-20T00:16:29.257Z,67.23
2022-12-20T00:18:59.198Z,67.26
2022-12-20T00:21:28.084Z,67.42
2022-12-20T00:23:57.747Z,67.35
2022-12-20T00:26:28.177Z,67.51
2022-12-20T00:28:57.309Z,68.04
2022-12-20T00:31:28.044Z,67.82
2022-12-20T00:33:58.223Z,71.51
2022-12-20T00:36:28.307Z,70.04
2022-12-20T00:38:59.407Z,68.98
2022-12-20T00:41:30.167Z,68.92
2022-12-20T00:43:58.758Z,68.94
2022-12-20T00:46:27.116Z,69.03
2022-12-20T00:48:56.915Z,68.97
2022-12-20T00:51:26.939Z,68.64
2022-12-20T00:53:55.832Z,68.82
2022-12-20T00:56:25.787Z,68.58
2022-12-20T00:58:58.813Z,69.08
2022-12-20T01:01:29.123Z,69.66
2022-12-20T01:03:58.015Z,69.46
2022-12-20T01:06:26.290Z,69.56
2022-12-20T01:08:54.624Z,69.75
2022-12-20T01:11:24.710Z,69.85
2022-12-20T01:13:57.144Z,69.91
2022-12-20T01:16:27.098Z,70.22
2022-12-20T01:18:55.756Z,70.08
2022-12-20T01:21:25.750Z,70.10
2022-12-20T01:23:54.508Z,70.18
2022-12-20T01:26:24.719Z,70.70
2022-12-20T01:28:56.849Z,70.83
2022-12-20T01:31:25.855Z,70.94
2022-12-20T01:33:54.240Z,70.80
2022-12-20T01:36:25.939Z,71.03
2022-12-20T01:38:57.942Z,71.03
2022-12-20T01:41:26.273Z,71.03
2022-12-20T01:43:58.867Z,71.18
2022-12-20T01:46:28.736Z,70.98
2022-12-20T01:49:01.713Z,71.24
2022-12-20T01:51:32.131Z,70.69
2022-12-20T01:54:06.090Z,70.87
2022-12-20T01:56:34.537Z,70.81
2022-12-20T01:59:05.151Z,70.99
2022-12-20T02:01:33.720Z,71.08
2022-12-20T02:04:01.789Z,70.73
2022-12-20T02:06:29.908Z,71.01
2022-12-20T02:09:03.129Z,71.21
2022-12-20T02:11:52.609Z,71.02
2022-12-20T02:14:33.796Z,71.85
2022-12-20T02:17:13.374Z,72.57
2022-12-20T02:20:07.685Z,73.71
2022-12-20T02:22:50.222Z,74.13
2022-12-20T02:25:48.381Z,73.28
2022-12-20T02:28:33.846Z,73.30
2022-12-20T02:31:06.957Z,73.35
2022-12-20T02:33:35.085Z,73.45
2022-12-20T02:36:04.452Z,73.54
2022-12-20T02:38:34.755Z,73.20
2022-12-20T02:41:07.843Z,72.86
2022-12-20T02:43:57.866Z,72.72
2022-12-20T02:46:28.672Z,72.58
2022-12-20T02:48:59.669Z,70.84
2022-12-20T02:51:29.751Z,71.09
2022-12-20T02:53:59.142Z,71.27
2022-12-20T02:56:32.586Z,71.41
2022-12-20T02:59:08.175Z,71.37
2022-12-20T03:01:40.512Z,71.32
2022-12-20T03:04:09.937Z,71.30
2022-12-20T03:06:40.776Z,71.13
2022-12-20T03:09:08.859Z,70.96
2022-12-20T03:11:38.479Z,70.79
2022-12-20T03:14:07.143Z,69.55
2022-12-20T03:16:36.992Z,69.23
2022-12-20T03:19:05.030Z,69.16
2022-12-20T03:21:33.009Z,68.94
2022-12-20T03:24:01.896Z,68.88
2022-12-20T03:26:30.061Z,68.81
2022-12-20T03:29:00.526Z,68.02
2022-12-20T03:31:29.654Z,67.69
2022-12-20T03:33:59.247Z,66.56
2022-12-20T03:36:27.808Z,66.47
2022-12-20T03:39:00.509Z,66.52
2022-12-20T03:41:31.959Z,68.91
2022-12-20T03:44:01.021Z,69.52
2022-12-20T03:46:29.204Z,68.07
2022-12-20T03:48:59.370Z,67.52
2022-12-20T03:51:27.747Z,68.04
2022-12-20T03:53:55.950Z,69.11
2022-12-20T03:56:30.612Z,69.80
2022-12-20T03:58:58.694Z,70.45
2022-12-20T04:01:29.482Z,70.51
2022-12-20T04:03:59.639Z,70.46
2022-12-20T04:06:28.606Z,71.07
2022-12-20T04:08:56.834Z,71.30
2022-12-20T04:11:30.256Z,71.37
2022-12-20T04:14:11.577Z,71.14
2022-12-20T04:16:39.943Z,70.58
2022-12-20T04:19:10.092Z,69.75
2022-12-20T04:21:42.510Z,69.72
2022-12-20T04:24:11.192Z,70.14
2022-12-20T04:27:08.168Z,71.04
2022-12-20T04:29:36.169Z,72.17
2022-12-20T04:32:06.616Z,74.44
2022-12-20T04:34:36.033Z,75.38
2022-12-20T04:37:04.474Z,75.92
2022-12-20T04:39:44.301Z,75.04
2022-12-20T04:42:35.395Z,74.49
2022-12-20T04:45:04.407Z,74.25
2022-12-20T04:47:32.681Z,74.54
2022-12-20T04:50:02.413Z,75.07
2022-12-20T04:52:48.494Z,74.49
2022-12-20T04:55:17.823Z,73.82
2022-12-20T04:57:46.182Z,73.77
2022-12-20T05:00:15.825Z,74.56
2022-12-20T05:02:47.337Z,75.22
2022-12-20T05:05:20.297Z,76.33
2022-12-20T05:07:52.717Z,76.74
2022-12-20T05:10:21.229Z,75.46
2022-12-20T05:12:50.130Z,75.94
2022-12-20T05:15:40.456Z,76.24
2022-12-20T05:18:08.696Z,77.47
2022-12-20T05:21:12.655Z,77.65
2022-12-20T05:23:58.880Z,77.91
2022-12-20T05:26:34.693Z,77.99
2022-12-20T05:29:02.878Z,78.68
2022-12-20T05:31:31.186Z,79.81
2022-12-20T05:34:00.445Z,80.08
2022-12-20T05:36:33.611Z,79.54
2022-12-20T05:39:04.869Z,80.33
2022-12-20T05:41:36.401Z,80.02
2022-12-20T05:44:04.651Z,80.48
2022-12-20T05:46:35.737Z,80.16
2022-12-20T05:49:08.806Z,79.95
2022-12-20T05:51:38.222Z,80.28
2022-12-20T05:54:25.350Z,79.70
2022-12-20T05:57:16.195Z,80.45
2022-12-20T05:59:44.429Z,80.58
2022-12-20T06:02:22.132Z,80.08
2022-12-20T06:04:54.797Z,79.90
2022-12-20T06:07:29.102Z,80.27
2022-12-20T06:10:00.415Z,80.05
2022-12-20T06:12:41.237Z,78.63
2022-12-20T06:15:10.944Z,78.51
2022-12-20T06:17:40.423Z,78.16
2022-12-20T06:20:09.711Z,78.12
2022-12-20T06:22:39.235Z,77.53
2022-12-20T06:25:09.352Z,77.36
2022-12-20T06:27:40.544Z,77.44
2022-12-20T06:30:14.603Z,78.43
2022-12-20T06:33:05.975Z,78.18
2022-12-20T06:35:33.988Z,77.80
2022-12-20T06:38:03.607Z,78.04
2022-12-20T06:40:35.040Z,78.00
2022-12-20T06:43:03.140Z,78.42
2022-12-20T06:45:34.754Z,79.31
2022-12-20T06:48:08.180Z,77.96
2022-12-20T06:50:36.893Z,77.16
2022-12-20T06:53:06.474Z,76.33
2022-12-20T06:55:34.691Z,76.21
2022-12-20T06:58:02.745Z,75.79
2022-12-20T07:00:30.954Z,75.66
2022-12-20T07:02:59.618Z,76.75
2022-12-20T07:05:27.807Z,77.33
2022-12-20T07:07:55.829Z,77.35
2022-12-20T07:10:25.350Z,78.17
2022-12-20T07:12:53.689Z,78.54
2022-12-20T07:15:22.260Z,78.38
2022-12-20T07:17:50.714Z,77.47
2022-12-20T07:20:19.584Z,76.51
2022-12-20T07:22:49.010Z,76.17
2022-12-20T07:25:17.304Z,76.21
2022-12-20T07:27:50.027Z,77.14
2022-12-20T07:30:19.193Z,76.71
2022-12-20T07:32:47.339Z,76.08
2022-12-20T07:35:16.251Z,76.71
2022-12-20T07:37:44.853Z,75.90
2022-12-20T07:40:14.831Z,77.00
2022-12-20T07:42:48.293Z,77.58
2022-12-20T07:45:18.617Z,76.55
2022-12-20T07:47:46.667Z,76.02
2022-12-20T07:50:15.018Z,75.63
2022-12-20T07:52:45.925Z,75.88
2022-12-20T07:55:15.644Z,74.67
2022-12-20T07:57:49.395Z,74.06
2022-12-20T08:00:19.841Z,74.02
2022-12-20T08:02:53.967Z,75.87
2022-12-20T08:05:22.623Z,75.55
2022-12-20T08:07:56.792Z,75.47
2022-12-20T08:10:27.554Z,75.96
2022-12-20T08:12:56.623Z,75.38
2022-12-20T08:15:26.993Z,74.36
2022-12-20T08:17:55.020Z,75.55
2022-12-20T08:20:23.353Z,74.21
2022-12-20T08:22:51.399Z,73.91
2022-12-20T08:25:19.626Z,73.77
2022-12-20T08:27:47.666Z,72.41
2022-12-20T08:30:16.350Z,72.87
2022-12-20T08:32:45.774Z,73.51
2022-12-20T08:35:14.149Z,71.82
2022-12-20T08:37:42.125Z,70.52
2022-12-20T08:40:11.407Z,70.69
2022-12-20T08:42:39.520Z,70.40
2022-12-20T08:45:08.776Z,70.14
2022-12-20T08:47:36.760Z,69.71
2022-12-20T08:50:07.167Z,69.66
2022-12-20T08:52:35.250Z,69.02
2022-12-20T08:55:05.336Z,68.51
2022-12-20T08:57:33.738Z,68.67
2022-12-20T09:00:01.716Z,69.42
2022-12-20T09:02:29.879Z,69.12
2022-12-20T09:04:59.413Z,69.95
2022-12-20T09:07:28.782Z,69.37
2022-12-20T09:09:57.296Z,69.26
2022-12-20T09:12:25.365Z,69.74
2022-12-20T09:14:54.647Z,69.27
2022-12-20T09:17:22.718Z,68.62
2022-12-20T09:19:51.017Z,69.67
2022-12-20T09:22:19.067Z,70.66
2022-12-20T09:24:49.266Z,71.01
2022-12-20T09:27:17.486Z,70.58
2022-12-20T09:29:45.543Z,69.94
2022-12-20T09:32:13.791Z,70.28
2022-12-20T09:34:48.280Z,69.90
2022-12-20T09:37:16.486Z,69.36
2022-12-20T09:39:44.619Z,69.11
2022-12-20T09:42:16.907Z,68.77
2022-12-20T09:44:45.049Z,67.50
2022-12-20T09:47:19.149Z,67.27
2022-12-20T09:49:49.569Z,66.93
2022-12-20T09:52:30.127Z,67.48
2022-12-20T09:55:07.366Z,66.18
2022-12-20T09:57:49.084Z,66.60
2022-12-20T10:00:19.840Z,65.69
2022-12-20T10:03:06.692Z,65.92
2022-12-20T10:05:44.376Z,66.45
2022-12-20T10:08:38.361Z,65.89
2022-12-20T10:11:14.771Z,66.68
2022-12-20T10:13:57.610Z,68.45
2022-12-20T10:16:40.255Z,69.86
2022-12-20T10:19:24.447Z,68.99
2022-12-20T10:22:00.177Z,68.04
2022-12-20T10:24:31.576Z,67.66
2022-12-20T10:27:08.740Z,66.21
2022-12-20T10:29:38.434Z,65.51
2022-12-20T10:32:14.608Z,64.81
2022-12-20T10:34:51.330Z,63.85
2022-12-20T10:37:19.514Z,63.92
2022-12-20T10:39:49.787Z,63.74
2022-12-20T10:42:34.329Z,64.00
2022-12-20T10:45:04.518Z,63.25
2022-12-20T10:47:39.627Z,63.80
2022-12-20T10:50:16.967Z,63.10
2022-12-20T10:52:46.375Z,62.70
2022-12-20T10:55:37.470Z,61.98
2022-12-20T10:58:07.984Z,62.68
2022-12-20T11:00:37.623Z,63.31
2022-12-20T11:03:15.812Z,63.16
2022-12-20T11:05:59.096Z,62.79
2022-12-20T11:11:19.588Z,64.34
2022-12-20T11:13:49.300Z,63.84
2022-12-20T11:16:42.946Z,63.56
2022-12-20T11:19:34.179Z,63.41
2022-12-20T11:22:12.788Z,63.31
2022-12-20T11:24:50.467Z,64.04
2022-12-20T11:27:31.429Z,64.61
2022-12-20T11:30:18.803Z,64.93
2022-12-20T11:33:18.190Z,66.96
2022-12-20T11:35:53.651Z,67.98
2022-12-20T11:38:40.448Z,69.15
2022-12-20T11:41:20.252Z,69.77
2022-12-20T11:44:26.304Z,71.12
2022-12-20T11:47:09.475Z,70.92
2022-12-20T11:50:14.493Z,70.72
2022-12-20T11:52:48.327Z,71.03
2022-12-20T11:55:21.832Z,70.57
2022-12-20T12:00:53.735Z,69.33
2022-12-20T12:03:29.930Z,69.28
2022-12-20T12:06:03.801Z,69.17
2022-12-20T12:08:41.371Z,69.45
2022-12-20T12:11:55.863Z,69.39
2022-12-20T12:14:06.256Z,69.18
2022-12-20T12:16:38.895Z,69.96
2022-12-20T12:19:11.302Z,70.04
2022-12-20T12:21:46.093Z,70.72
2022-12-20T12:24:24.626Z,69.77
2022-12-20T12:26:54.382Z,70.80
2022-12-20T12:29:23.555Z,70.55
2022-12-20T12:31:57.405Z,70.18
2022-12-20T12:34:38.737Z,70.77
2022-12-20T12:37:40.018Z,70.37
2022-12-20T12:40:27.851Z,69.56
2022-12-20T12:43:46.906Z,68.92
2022-12-20T12:46:19.526Z,69.04
2022-12-20T12:48:53.854Z,68.89
2022-12-20T12:51:33.062Z,69.11
2022-12-20T12:54:29.220Z,70.46
2022-12-20T12:57:14.032Z,71.28
2022-12-20T12:59:52.932Z,72.43
2022-12-20T13:02:52.131Z,73.42
2022-12-20T13:05:36.943Z,74.98
2022-12-20T13:08:05.990Z,74.22
2022-12-20T13:10:59.837Z,74.49
2022-12-20T13:13:28.083Z,74.83
2022-12-20T13:17:09.574Z,75.15
2022-12-20T13:19:37.628Z,74.88
2022-12-20T13:22:22.789Z,74.71
2022-12-20T13:24:56.410Z,74.55
2022-12-20T13:27:29.267Z,74.88
2022-12-20T13:30:02.536Z,74.40
2022-12-20T13:32:59.960Z,74.78
2022-12-20T13:35:47.686Z,74.65
2022-12-20T13:39:01.826Z,76.77
2022-12-20T13:41:39.498Z,73.92
2022-12-20T13:44:36.001Z,72.25
2022-12-20T13:47:13.943Z,72.20
2022-12-20T13:49:44.411Z,71.54
2022-12-20T13:52:25.447Z,71.62
